sensor_id;sensor_type;location;lat;lon;timestamp;P1;durP1;ratioP1;P2;durP2;ratioP2
59159;SDS011;44941;45.058;20.076;2023-04-01T00:01:55;11.40;;;2.90;;
59159;SDS011;44941;45.058;20.076;2023-04-01T00:04:21;7.95;;;2.67;;
59159;SDS011;44941;45.058;20.076;2023-04-01T00:06:47;12.98;;;3.08;;
59159;SDS011;44941;45.058;20.076;2023-04-01T00:09:13;11.00;;;2.95;;
59159;SDS011;44941;45.058;20.076;2023-04-01T00:11:39;9.00;;;2.90;;
59159;SDS011;44941;45.058;20.076;2023-04-01T00:14:06;8.15;;;2.47;;
59159;SDS011;44941;45.058;20.076;2023-04-01T00:16:32;8.52;;;2.35;;
59159;SDS011;44941;45.058;20.076;2023-04-01T00:18:59;11.23;;;2.40;;
59159;SDS011;44941;45.058;20.076;2023-04-01T00:21:28;9.18;;;2.10;;
59159;SDS011;44941;45.058;20.076;2023-04-01T00:23:54;6.90;;;2.22;;
59159;SDS011;44941;45.058;20.076;2023-04-01T00:26:21;6.35;;;2.33;;
59159;SDS011;44941;45.058;20.076;2023-04-01T00:28:47;9.10;;;2.03;;
59159;SDS011;44941;45.058;20.076;2023-04-01T00:31:14;10.32;;;2.17;;
59159;SDS011;44941;45.058;20.076;2023-04-01T00:33:40;12.02;;;2.33;;
59159;SDS011;44941;45.058;20.076;2023-04-01T00:36:10;8.77;;;2.17;;
59159;SDS011;44941;45.058;20.076;2023-04-01T00:38:37;11.45;;;2.33;;
59159;SDS011;44941;45.058;20.076;2023-04-01T00:41:03;9.15;;;2.13;;
59159;SDS011;44941;45.058;20.076;2023-04-01T00:43:29;6.65;;;2.00;;
59159;SDS011;44941;45.058;20.076;2023-04-01T00:45:56;8.73;;;2.47;;
59159;SDS011;44941;45.058;20.076;2023-04-01T00:48:23;11.02;;;2.20;;
59159;SDS011;44941;45.058;20.076;2023-04-01T00:50:52;9.40;;;2.85;;
59159;SDS011;44941;45.058;20.076;2023-04-01T00:53:20;9.07;;;2.22;;
59159;SDS011;44941;45.058;20.076;2023-04-01T00:55:49;9.98;;;3.15;;
59159;SDS011;44941;45.058;20.076;2023-04-01T00:58:16;10.63;;;3.75;;
59159;SDS011;44941;45.058;20.076;2023-04-01T01:00:45;12.85;;;3.28;;
59159;SDS011;44941;45.058;20.076;2023-04-01T01:05:50;11.65;;;2.65;;
59159;SDS011;44941;45.058;20.076;2023-04-01T01:08:23;8.02;;;2.60;;
59159;SDS011;44941;45.058;20.076;2023-04-01T01:10:54;8.80;;;2.63;;
59159;SDS011;44941;45.058;20.076;2023-04-01T01:13:30;9.95;;;2.80;;
59159;SDS011;44941;45.058;20.076;2023-04-01T01:26:14;16.15;;;3.97;;
59159;SDS011;44941;45.058;20.076;2023-04-01T01:36:40;11.88;;;3.83;;
59159;SDS011;44941;45.058;20.076;2023-04-01T01:39:10;20.98;;;8.55;;
59159;SDS011;44941;45.058;20.076;2023-04-01T01:41:36;12.25;;;3.83;;
59159;SDS011;44941;45.058;20.076;2023-04-01T01:44:04;12.35;;;4.03;;
59159;SDS011;44941;45.058;20.076;2023-04-01T01:48:57;11.98;;;2.85;;
59159;SDS011;44941;45.058;20.076;2023-04-01T01:51:25;12.10;;;2.60;;
59159;SDS011;44941;45.058;20.076;2023-04-01T01:53:52;10.40;;;2.70;;
59159;SDS011;44941;45.058;20.076;2023-04-01T01:56:26;10.45;;;2.40;;
59159;SDS011;44941;45.058;20.076;2023-04-01T01:58:58;7.93;;;2.95;;
59159;SDS011;44941;45.058;20.076;2023-04-01T02:01:32;10.18;;;3.08;;
59159;SDS011;44941;45.058;20.076;2023-04-01T02:04:01;7.78;;;2.70;;
59159;SDS011;44941;45.058;20.076;2023-04-01T02:06:33;10.30;;;2.67;;
59159;SDS011;44941;45.058;20.076;2023-04-01T02:09:10;6.78;;;2.70;;
59159;SDS011;44941;45.058;20.076;2023-04-01T02:14:16;6.15;;;2.10;;
59159;SDS011;44941;45.058;20.076;2023-04-01T02:19:10;7.43;;;2.10;;
59159;SDS011;44941;45.058;20.076;2023-04-01T02:21:37;8.02;;;2.40;;
59159;SDS011;44941;45.058;20.076;2023-04-01T02:24:04;8.80;;;2.50;;
59159;SDS011;44941;45.058;20.076;2023-04-01T02:26:31;6.55;;;2.35;;
59159;SDS011;44941;45.058;20.076;2023-04-01T02:28:57;6.80;;;2.10;;
59159;SDS011;44941;45.058;20.076;2023-04-01T02:31:25;9.05;;;1.48;;
59159;SDS011;44941;45.058;20.076;2023-04-01T02:33:51;7.50;;;1.67;;
59159;SDS011;44941;45.058;20.076;2023-04-01T02:36:18;5.70;;;1.88;;
59159;SDS011;44941;45.058;20.076;2023-04-01T02:38:45;7.15;;;1.70;;
59159;SDS011;44941;45.058;20.076;2023-04-01T02:41:11;9.10;;;1.80;;
59159;SDS011;44941;45.058;20.076;2023-04-01T02:43:38;8.00;;;2.10;;
59159;SDS011;44941;45.058;20.076;2023-04-01T02:46:04;5.47;;;1.67;;
59159;SDS011;44941;45.058;20.076;2023-04-01T02:48:30;4.70;;;1.77;;
59159;SDS011;44941;45.058;20.076;2023-04-01T02:50:56;9.52;;;1.88;;
59159;SDS011;44941;45.058;20.076;2023-04-01T02:53:22;5.57;;;1.73;;
59159;SDS011;44941;45.058;20.076;2023-04-01T02:55:48;3.90;;;1.30;;
59159;SDS011;44941;45.058;20.076;2023-04-01T02:58:17;3.30;;;1.20;;
59159;SDS011;44941;45.058;20.076;2023-04-01T03:00:43;5.72;;;1.65;;
59159;SDS011;44941;45.058;20.076;2023-04-01T03:03:09;4.95;;;1.50;;
59159;SDS011;44941;45.058;20.076;2023-04-01T03:05:36;5.30;;;1.80;;
59159;SDS011;44941;45.058;20.076;2023-04-01T03:08:02;5.47;;;1.98;;
59159;SDS011;44941;45.058;20.076;2023-04-01T03:10:28;3.78;;;1.58;;
59159;SDS011;44941;45.058;20.076;2023-04-01T03:12:54;5.88;;;2.00;;
59159;SDS011;44941;45.058;20.076;2023-04-01T03:15:20;3.90;;;1.38;;
59159;SDS011;44941;45.058;20.076;2023-04-01T03:17:50;3.17;;;1.38;;
59159;SDS011;44941;45.058;20.076;2023-04-01T03:20:16;6.18;;;2.00;;
59159;SDS011;44941;45.058;20.076;2023-04-01T03:22:42;4.93;;;1.23;;
59159;SDS011;44941;45.058;20.076;2023-04-01T03:25:08;7.70;;;1.25;;
59159;SDS011;44941;45.058;20.076;2023-04-01T03:27:35;4.95;;;1.00;;
59159;SDS011;44941;45.058;20.076;2023-04-01T03:30:04;3.75;;;1.08;;
59159;SDS011;44941;45.058;20.076;2023-04-01T03:32:39;2.72;;;0.88;;
59159;SDS011;44941;45.058;20.076;2023-04-01T03:35:05;3.50;;;1.00;;
59159;SDS011;44941;45.058;20.076;2023-04-01T03:37:31;4.88;;;1.05;;
59159;SDS011;44941;45.058;20.076;2023-04-01T03:39:58;3.15;;;0.93;;
59159;SDS011;44941;45.058;20.076;2023-04-01T03:42:24;3.15;;;0.90;;
59159;SDS011;44941;45.058;20.076;2023-04-01T03:44:50;3.70;;;1.02;;
59159;SDS011;44941;45.058;20.076;2023-04-01T03:47:16;5.10;;;1.15;;
59159;SDS011;44941;45.058;20.076;2023-04-01T03:49:42;5.97;;;1.40;;
59159;SDS011;44941;45.058;20.076;2023-04-01T03:52:09;1.92;;;1.00;;
59159;SDS011;44941;45.058;20.076;2023-04-01T03:54:35;5.93;;;1.00;;
59159;SDS011;44941;45.058;20.076;2023-04-01T03:57:01;6.43;;;1.17;;
59159;SDS011;44941;45.058;20.076;2023-04-01T03:59:27;4.03;;;1.35;;
59159;SDS011;44941;45.058;20.076;2023-04-01T04:01:54;2.75;;;0.98;;
59159;SDS011;44941;45.058;20.076;2023-04-01T04:04:20;2.10;;;0.75;;
59159;SDS011;44941;45.058;20.076;2023-04-01T04:06:46;3.28;;;0.95;;
59159;SDS011;44941;45.058;20.076;2023-04-01T04:09:13;3.40;;;0.90;;
59159;SDS011;44941;45.058;20.076;2023-04-01T04:11:39;4.93;;;0.98;;
59159;SDS011;44941;45.058;20.076;2023-04-01T04:14:05;2.70;;;1.00;;
59159;SDS011;44941;45.058;20.076;2023-04-01T04:16:31;2.80;;;1.00;;
59159;SDS011;44941;45.058;20.076;2023-04-01T04:18:57;3.85;;;1.60;;
59159;SDS011;44941;45.058;20.076;2023-04-01T04:21:23;4.43;;;1.40;;
59159;SDS011;44941;45.058;20.076;2023-04-01T04:23:49;2.05;;;0.90;;
59159;SDS011;44941;45.058;20.076;2023-04-01T04:26:16;3.47;;;1.23;;
59159;SDS011;44941;45.058;20.076;2023-04-01T04:28:42;3.60;;;1.30;;
59159;SDS011;44941;45.058;20.076;2023-04-01T04:31:08;3.70;;;1.20;;
59159;SDS011;44941;45.058;20.076;2023-04-01T04:33:35;6.68;;;1.30;;
59159;SDS011;44941;45.058;20.076;2023-04-01T04:36:01;4.72;;;1.70;;
59159;SDS011;44941;45.058;20.076;2023-04-01T04:38:27;4.57;;;1.52;;
59159;SDS011;44941;45.058;20.076;2023-04-01T04:40:54;8.63;;;2.50;;
59159;SDS011;44941;45.058;20.076;2023-04-01T04:43:20;8.65;;;3.88;;
59159;SDS011;44941;45.058;20.076;2023-04-01T04:45:46;31.80;;;12.95;;
59159;SDS011;44941;45.058;20.076;2023-04-01T04:48:13;27.77;;;12.00;;
59159;SDS011;44941;45.058;20.076;2023-04-01T04:50:43;20.75;;;9.93;;
59159;SDS011;44941;45.058;20.076;2023-04-01T04:53:10;13.68;;;4.88;;
59159;SDS011;44941;45.058;20.076;2023-04-01T04:56:00;11.88;;;5.32;;
59159;SDS011;44941;45.058;20.076;2023-04-01T04:58:41;8.05;;;3.45;;
59159;SDS011;44941;45.058;20.076;2023-04-01T05:01:19;4.50;;;1.60;;
59159;SDS011;44941;45.058;20.076;2023-04-01T05:03:53;4.35;;;1.55;;
59159;SDS011;44941;45.058;20.076;2023-04-01T05:06:19;3.35;;;1.33;;
59159;SDS011;44941;45.058;20.076;2023-04-01T05:08:45;3.28;;;1.42;;
59159;SDS011;44941;45.058;20.076;2023-04-01T05:11:12;3.95;;;1.60;;
59159;SDS011;44941;45.058;20.076;2023-04-01T05:13:42;4.85;;;1.60;;
59159;SDS011;44941;45.058;20.076;2023-04-01T05:16:12;5.10;;;1.92;;
59159;SDS011;44941;45.058;20.076;2023-04-01T05:18:38;5.18;;;1.42;;
59159;SDS011;44941;45.058;20.076;2023-04-01T05:21:06;7.47;;;1.52;;
59159;SDS011;44941;45.058;20.076;2023-04-01T05:23:32;6.05;;;1.50;;
59159;SDS011;44941;45.058;20.076;2023-04-01T05:25:59;3.53;;;1.40;;
59159;SDS011;44941;45.058;20.076;2023-04-01T05:28:28;2.33;;;1.27;;
59159;SDS011;44941;45.058;20.076;2023-04-01T05:30:54;5.13;;;1.67;;
59159;SDS011;44941;45.058;20.076;2023-04-01T05:33:20;5.40;;;1.50;;
59159;SDS011;44941;45.058;20.076;2023-04-01T05:35:46;4.10;;;1.73;;
59159;SDS011;44941;45.058;20.076;2023-04-01T05:38:12;4.57;;;1.42;;
59159;SDS011;44941;45.058;20.076;2023-04-01T05:40:38;5.43;;;1.50;;
59159;SDS011;44941;45.058;20.076;2023-04-01T05:43:04;4.63;;;1.40;;
59159;SDS011;44941;45.058;20.076;2023-04-01T05:45:30;6.38;;;1.60;;
59159;SDS011;44941;45.058;20.076;2023-04-01T05:48:02;3.78;;;1.70;;
59159;SDS011;44941;45.058;20.076;2023-04-01T05:50:28;6.50;;;1.80;;
59159;SDS011;44941;45.058;20.076;2023-04-01T05:52:54;9.00;;;4.53;;
59159;SDS011;44941;45.058;20.076;2023-04-01T05:55:20;6.35;;;2.50;;
59159;SDS011;44941;45.058;20.076;2023-04-01T05:57:46;6.10;;;1.70;;
59159;SDS011;44941;45.058;20.076;2023-04-01T06:00:14;4.60;;;1.70;;
59159;SDS011;44941;45.058;20.076;2023-04-01T06:02:47;4.20;;;1.40;;
59159;SDS011;44941;45.058;20.076;2023-04-01T06:05:14;4.22;;;1.48;;
59159;SDS011;44941;45.058;20.076;2023-04-01T06:07:41;4.38;;;1.50;;
59159;SDS011;44941;45.058;20.076;2023-04-01T06:10:15;3.78;;;1.38;;
59159;SDS011;44941;45.058;20.076;2023-04-01T06:12:52;6.60;;;2.22;;
59159;SDS011;44941;45.058;20.076;2023-04-01T06:15:27;4.15;;;1.63;;
59159;SDS011;44941;45.058;20.076;2023-04-01T06:18:16;6.65;;;1.85;;
59159;SDS011;44941;45.058;20.076;2023-04-01T06:20:48;4.47;;;1.55;;
59159;SDS011;44941;45.058;20.076;2023-04-01T06:28:59;3.80;;;1.88;;
59159;SDS011;44941;45.058;20.076;2023-04-01T06:44:16;4.20;;;2.22;;
59159;SDS011;44941;45.058;20.076;2023-04-01T06:49:17;9.38;;;4.22;;
59159;SDS011;44941;45.058;20.076;2023-04-01T06:54:32;10.05;;;3.47;;
59159;SDS011;44941;45.058;20.076;2023-04-01T06:57:20;7.95;;;3.30;;
59159;SDS011;44941;45.058;20.076;2023-04-01T07:03:02;7.25;;;3.40;;
59159;SDS011;44941;45.058;20.076;2023-04-01T07:05:01;8.50;;;3.20;;
59159;SDS011;44941;45.058;20.076;2023-04-01T07:07:35;7.40;;;3.47;;
59159;SDS011;44941;45.058;20.076;2023-04-01T07:10:04;6.38;;;3.15;;
59159;SDS011;44941;45.058;20.076;2023-04-01T07:14:58;6.80;;;3.13;;
59159;SDS011;44941;45.058;20.076;2023-04-01T07:17:27;9.23;;;4.10;;
59159;SDS011;44941;45.058;20.076;2023-04-01T07:20:03;7.75;;;3.85;;
59159;SDS011;44941;45.058;20.076;2023-04-01T07:22:50;11.50;;;3.90;;
59159;SDS011;44941;45.058;20.076;2023-04-01T07:25:22;7.75;;;3.88;;
59159;SDS011;44941;45.058;20.076;2023-04-01T07:27:50;9.73;;;4.43;;
59159;SDS011;44941;45.058;20.076;2023-04-01T07:30:19;12.25;;;4.57;;
59159;SDS011;44941;45.058;20.076;2023-04-01T07:35:46;10.02;;;4.43;;
59159;SDS011;44941;45.058;20.076;2023-04-01T07:38:36;8.15;;;4.25;;
59159;SDS011;44941;45.058;20.076;2023-04-01T07:41:13;9.02;;;4.47;;
59159;SDS011;44941;45.058;20.076;2023-04-01T07:48:43;12.13;;;4.10;;
59159;SDS011;44941;45.058;20.076;2023-04-01T07:51:17;9.70;;;4.20;;
59159;SDS011;44941;45.058;20.076;2023-04-01T07:56:22;11.48;;;4.63;;
59159;SDS011;44941;45.058;20.076;2023-04-01T08:01:43;19.27;;;10.27;;
59159;SDS011;44941;45.058;20.076;2023-04-01T08:14:36;12.95;;;6.95;;
59159;SDS011;44941;45.058;20.076;2023-04-01T08:17:15;13.50;;;6.18;;
59159;SDS011;44941;45.058;20.076;2023-04-01T08:19:56;13.25;;;5.88;;
59159;SDS011;44941;45.058;20.076;2023-04-01T08:22:27;10.60;;;4.18;;
59159;SDS011;44941;45.058;20.076;2023-04-01T08:24:55;10.10;;;5.18;;
59159;SDS011;44941;45.058;20.076;2023-04-01T08:27:38;11.50;;;5.63;;
59159;SDS011;44941;45.058;20.076;2023-04-01T08:32:41;9.45;;;3.53;;
59159;SDS011;44941;45.058;20.076;2023-04-01T08:35:14;10.75;;;5.43;;
59159;SDS011;44941;45.058;20.076;2023-04-01T08:37:42;10.50;;;3.60;;
59159;SDS011;44941;45.058;20.076;2023-04-01T08:40:32;7.20;;;3.58;;
59159;SDS011;44941;45.058;20.076;2023-04-01T08:45:42;6.95;;;2.97;;
59159;SDS011;44941;45.058;20.076;2023-04-01T08:48:23;7.53;;;3.05;;
59159;SDS011;44941;45.058;20.076;2023-04-01T08:56:20;6.15;;;2.65;;
59159;SDS011;44941;45.058;20.076;2023-04-01T09:01:17;6.07;;;2.13;;
59159;SDS011;44941;45.058;20.076;2023-04-01T09:26:44;6.88;;;1.90;;
59159;SDS011;44941;45.058;20.076;2023-04-01T09:39:43;4.85;;;1.77;;
59159;SDS011;44941;45.058;20.076;2023-04-01T09:44:44;5.05;;;1.60;;
59159;SDS011;44941;45.058;20.076;2023-04-01T09:48:19;5.18;;;1.73;;
59159;SDS011;44941;45.058;20.076;2023-04-01T09:52:51;4.78;;;1.30;;
59159;SDS011;44941;45.058;20.076;2023-04-01T10:13:38;4.80;;;1.70;;
59159;SDS011;44941;45.058;20.076;2023-04-01T10:47:07;3.72;;;1.17;;
59159;SDS011;44941;45.058;20.076;2023-04-01T11:10:57;4.95;;;1.90;;
59159;SDS011;44941;45.058;20.076;2023-04-01T11:29:42;4.43;;;1.80;;
59159;SDS011;44941;45.058;20.076;2023-04-01T11:58:03;5.32;;;1.80;;
59159;SDS011;44941;45.058;20.076;2023-04-01T12:11:17;7.25;;;2.50;;
59159;SDS011;44941;45.058;20.076;2023-04-01T12:13:53;6.22;;;2.08;;
59159;SDS011;44941;45.058;20.076;2023-04-01T12:17:07;5.40;;;1.45;;
59159;SDS011;44941;45.058;20.076;2023-04-01T12:26:59;5.53;;;2.40;;
59159;SDS011;44941;45.058;20.076;2023-04-01T12:29:42;5.78;;;2.65;;
59159;SDS011;44941;45.058;20.076;2023-04-01T12:34:58;4.18;;;1.30;;
59159;SDS011;44941;45.058;20.076;2023-04-01T12:40:31;6.35;;;1.90;;
59159;SDS011;44941;45.058;20.076;2023-04-01T12:45:50;5.85;;;1.38;;
59159;SDS011;44941;45.058;20.076;2023-04-01T12:48:37;5.72;;;1.40;;
59159;SDS011;44941;45.058;20.076;2023-04-01T12:51:16;5.50;;;1.58;;
59159;SDS011;44941;45.058;20.076;2023-04-01T13:04:44;8.80;;;3.67;;
59159;SDS011;44941;45.058;20.076;2023-04-01T13:12:23;6.13;;;2.42;;
59159;SDS011;44941;45.058;20.076;2023-04-01T13:17:36;4.75;;;1.95;;
59159;SDS011;44941;45.058;20.076;2023-04-01T13:20:19;9.05;;;2.50;;
59159;SDS011;44941;45.058;20.076;2023-04-01T13:28:14;8.80;;;3.08;;
59159;SDS011;44941;45.058;20.076;2023-04-01T13:31:02;6.70;;;2.95;;
59159;SDS011;44941;45.058;20.076;2023-04-01T13:36:03;8.05;;;3.92;;
59159;SDS011;44941;45.058;20.076;2023-04-01T13:43:58;6.55;;;2.67;;
59159;SDS011;44941;45.058;20.076;2023-04-01T13:56:32;7.38;;;3.55;;
59159;SDS011;44941;45.058;20.076;2023-04-01T14:04:34;8.77;;;3.60;;
59159;SDS011;44941;45.058;20.076;2023-04-01T14:24:59;10.00;;;3.88;;
59159;SDS011;44941;45.058;20.076;2023-04-01T14:32:49;7.70;;;3.20;;
59159;SDS011;44941;45.058;20.076;2023-04-01T14:35:22;8.35;;;3.30;;
59159;SDS011;44941;45.058;20.076;2023-04-01T14:48:56;5.53;;;2.40;;
59159;SDS011;44941;45.058;20.076;2023-04-01T14:51:33;5.90;;;2.60;;
59159;SDS011;44941;45.058;20.076;2023-04-01T14:54:02;6.53;;;2.53;;
59159;SDS011;44941;45.058;20.076;2023-04-01T14:56:40;8.45;;;2.90;;
59159;SDS011;44941;45.058;20.076;2023-04-01T14:59:08;9.68;;;3.35;;
59159;SDS011;44941;45.058;20.076;2023-04-01T15:06:48;6.30;;;2.60;;
59159;SDS011;44941;45.058;20.076;2023-04-01T15:14:34;6.53;;;1.95;;
59159;SDS011;44941;45.058;20.076;2023-04-01T15:29:41;5.53;;;1.75;;
59159;SDS011;44941;45.058;20.076;2023-04-01T15:35:09;3.78;;;1.30;;
59159;SDS011;44941;45.058;20.076;2023-04-01T15:40:17;3.13;;;1.17;;
59159;SDS011;44941;45.058;20.076;2023-04-01T15:43:10;3.80;;;1.40;;
59159;SDS011;44941;45.058;20.076;2023-04-01T15:48:02;3.65;;;1.27;;
59159;SDS011;44941;45.058;20.076;2023-04-01T15:58:21;6.55;;;2.17;;
59159;SDS011;44941;45.058;20.076;2023-04-01T16:21:52;6.43;;;2.65;;
59159;SDS011;44941;45.058;20.076;2023-04-01T16:24:37;6.00;;;2.40;;
59159;SDS011;44941;45.058;20.076;2023-04-01T16:27:25;7.38;;;3.20;;
59159;SDS011;44941;45.058;20.076;2023-04-01T16:37:34;6.18;;;2.38;;
59159;SDS011;44941;45.058;20.076;2023-04-01T16:40:20;5.60;;;2.50;;
59159;SDS011;44941;45.058;20.076;2023-04-01T16:42:56;6.00;;;2.50;;
59159;SDS011;44941;45.058;20.076;2023-04-01T16:48:34;7.00;;;3.08;;
59159;SDS011;44941;45.058;20.076;2023-04-01T16:51:02;7.72;;;2.70;;
59159;SDS011;44941;45.058;20.076;2023-04-01T16:58:27;8.25;;;3.10;;
59159;SDS011;44941;45.058;20.076;2023-04-01T17:01:20;8.07;;;4.15;;
59159;SDS011;44941;45.058;20.076;2023-04-01T17:03:44;8.73;;;4.40;;
59159;SDS011;44941;45.058;20.076;2023-04-01T17:17:37;6.13;;;2.72;;
59159;SDS011;44941;45.058;20.076;2023-04-01T17:20:10;5.85;;;2.60;;
59159;SDS011;44941;45.058;20.076;2023-04-01T17:22:43;6.85;;;2.70;;
59159;SDS011;44941;45.058;20.076;2023-04-01T17:25:17;5.72;;;2.25;;
59159;SDS011;44941;45.058;20.076;2023-04-01T17:30:56;8.35;;;2.38;;
59159;SDS011;44941;45.058;20.076;2023-04-01T17:49:26;7.03;;;2.10;;
59159;SDS011;44941;45.058;20.076;2023-04-01T17:55:21;5.20;;;2.10;;
59159;SDS011;44941;45.058;20.076;2023-04-01T18:08:43;8.10;;;2.90;;
59159;SDS011;44941;45.058;20.076;2023-04-01T18:21:27;6.15;;;2.63;;
59159;SDS011;44941;45.058;20.076;2023-04-01T18:24:02;6.13;;;2.42;;
59159;SDS011;44941;45.058;20.076;2023-04-01T18:26:32;9.35;;;4.13;;
59159;SDS011;44941;45.058;20.076;2023-04-01T18:31:48;8.65;;;2.88;;
59159;SDS011;44941;45.058;20.076;2023-04-01T18:34:20;10.48;;;4.65;;
59159;SDS011;44941;45.058;20.076;2023-04-01T18:36:55;18.48;;;6.65;;
59159;SDS011;44941;45.058;20.076;2023-04-01T18:39:41;14.73;;;6.50;;
59159;SDS011;44941;45.058;20.076;2023-04-01T18:42:15;9.02;;;3.75;;
59159;SDS011;44941;45.058;20.076;2023-04-01T18:44:49;10.55;;;4.05;;
59159;SDS011;44941;45.058;20.076;2023-04-01T18:47:25;13.10;;;4.00;;
59159;SDS011;44941;45.058;20.076;2023-04-01T18:49:55;8.70;;;3.38;;
59159;SDS011;44941;45.058;20.076;2023-04-01T18:52:37;8.13;;;3.67;;
59159;SDS011;44941;45.058;20.076;2023-04-01T18:57:46;5.75;;;1.92;;
59159;SDS011;44941;45.058;20.076;2023-04-01T19:00:14;5.28;;;2.00;;
59159;SDS011;44941;45.058;20.076;2023-04-01T19:02:43;5.90;;;2.38;;
59159;SDS011;44941;45.058;20.076;2023-04-01T19:05:12;3.58;;;1.55;;
59159;SDS011;44941;45.058;20.076;2023-04-01T19:13:06;10.55;;;3.58;;
59159;SDS011;44941;45.058;20.076;2023-04-01T19:20:45;7.57;;;3.08;;
59159;SDS011;44941;45.058;20.076;2023-04-01T19:28:55;3.10;;;1.20;;
59159;SDS011;44941;45.058;20.076;2023-04-01T19:36:36;1.75;;;0.55;;
59159;SDS011;44941;45.058;20.076;2023-04-01T19:54:46;3.50;;;1.48;;
59159;SDS011;44941;45.058;20.076;2023-04-01T19:57:50;2.83;;;1.02;;
59159;SDS011;44941;45.058;20.076;2023-04-01T20:05:23;6.15;;;2.15;;
59159;SDS011;44941;45.058;20.076;2023-04-01T20:07:51;7.90;;;3.15;;
59159;SDS011;44941;45.058;20.076;2023-04-01T20:17:50;4.35;;;1.63;;
59159;SDS011;44941;45.058;20.076;2023-04-01T20:20:19;6.38;;;2.58;;
59159;SDS011;44941;45.058;20.076;2023-04-01T20:25:13;4.97;;;1.30;;
59159;SDS011;44941;45.058;20.076;2023-04-01T20:27:44;3.28;;;1.30;;
59159;SDS011;44941;45.058;20.076;2023-04-01T20:37:49;4.45;;;1.38;;
59159;SDS011;44941;45.058;20.076;2023-04-01T20:43:32;3.38;;;1.20;;
59159;SDS011;44941;45.058;20.076;2023-04-01T20:45:42;2.65;;;0.90;;
59159;SDS011;44941;45.058;20.076;2023-04-01T20:50:53;3.40;;;1.40;;
59159;SDS011;44941;45.058;20.076;2023-04-01T21:02:20;3.88;;;1.48;;
59159;SDS011;44941;45.058;20.076;2023-04-01T21:12:34;4.05;;;1.38;;
59159;SDS011;44941;45.058;20.076;2023-04-01T21:20:33;4.05;;;1.50;;
59159;SDS011;44941;45.058;20.076;2023-04-01T21:25:45;4.38;;;1.48;;
59159;SDS011;44941;45.058;20.076;2023-04-01T21:28:29;8.68;;;2.50;;
59159;SDS011;44941;45.058;20.076;2023-04-01T21:33:42;7.43;;;2.03;;
59159;SDS011;44941;45.058;20.076;2023-04-01T21:36:27;5.05;;;1.60;;
59159;SDS011;44941;45.058;20.076;2023-04-01T21:42:11;8.38;;;1.98;;
59159;SDS011;44941;45.058;20.076;2023-04-01T21:44:43;6.40;;;2.20;;
59159;SDS011;44941;45.058;20.076;2023-04-01T22:26:27;2.63;;;0.93;;
59159;SDS011;44941;45.058;20.076;2023-04-01T22:32:06;2.75;;;1.02;;
59159;SDS011;44941;45.058;20.076;2023-04-01T22:35:02;2.08;;;0.90;;
59159;SDS011;44941;45.058;20.076;2023-04-01T22:42:42;5.80;;;1.20;;
59159;SDS011;44941;45.058;20.076;2023-04-01T22:51:54;1.80;;;0.60;;
59159;SDS011;44941;45.058;20.076;2023-04-01T23:00:15;2.90;;;1.02;;
59159;SDS011;44941;45.058;20.076;2023-04-01T23:16:43;2.97;;;1.10;;
59159;SDS011;44941;45.058;20.076;2023-04-01T23:19:35;4.15;;;1.40;;
59159;SDS011;44941;45.058;20.076;2023-04-01T23:22:20;4.82;;;1.88;;
59159;SDS011;44941;45.058;20.076;2023-04-01T23:25:00;3.60;;;1.55;;
59159;SDS011;44941;45.058;20.076;2023-04-01T23:27:36;3.95;;;1.45;;
59159;SDS011;44941;45.058;20.076;2023-04-01T23:30:03;6.32;;;1.13;;
59159;SDS011;44941;45.058;20.076;2023-04-01T23:32:30;5.25;;;1.42;;
59159;SDS011;44941;45.058;20.076;2023-04-01T23:34:59;3.92;;;1.20;;
59159;SDS011;44941;45.058;20.076;2023-04-01T23:37:25;3.65;;;1.15;;
59159;SDS011;44941;45.058;20.076;2023-04-01T23:39:53;3.13;;;0.93;;
59159;SDS011;44941;45.058;20.076;2023-04-01T23:42:23;2.45;;;0.90;;
59159;SDS011;44941;45.058;20.076;2023-04-01T23:44:51;2.47;;;0.88;;
59159;SDS011;44941;45.058;20.076;2023-04-01T23:47:22;3.33;;;1.05;;
59159;SDS011;44941;45.058;20.076;2023-04-01T23:49:51;2.55;;;0.88;;
59159;SDS011;44941;45.058;20.076;2023-04-01T23:52:22;2.67;;;0.95;;
59159;SDS011;44941;45.058;20.076;2023-04-01T23:54:53;2.97;;;1.17;;
59159;SDS011;44941;45.058;20.076;2023-04-01T23:57:27;3.10;;;0.93;;
